Impacts TAF Board
For situational awareness. Not to be used for flight planning purposes.
IDs:

KMCO - Orlando Intl, FL, US

Issued at 2345 UTC 25 Apr 2019
Updated at 0142 UTC 26 Apr 2019
Potential Impact None Slight Moderate High
Time<<26/14Z 26/15Z 26/16Z 26/17Z 26/18Z 26/19Z 26/20Z 26/21Z 26/22Z 26/23Z 27/00Z 27/01Z 27/02Z>>
Type PRVL PRVL PRVL PRVL PRVL PRVL PRVL PRVL PRVL PRVL PRVL PRVL PRVL
VIS >6 >6 >6 >6 >6 >6 >6 >6 >6 >6 >6 >6 >6
CIG 40 40 40 40 40 250 250 250 250 250 -- -- --
Cover BKN BKN BKN BKN BKN BKN BKN BKN BKN BKN FEW FEW FEW
FltCat VFR VFR VFR VFR VFR VFR VFR VFR VFR VFR VFR VFR VFR
WX VCTS VCTS VCTS VCTS VCTS -- -- -- -- -- -- -- --
WDir 230 230 230 230 230 260 260 260 260 260 260 260 260
WSpd 17 17 17 17 17 15 15 15 15 15 9 9 9
WGst 24 24 24 24 24 22 22 22 22 22 -- -- --
Raw TAF
KMCO 252345Z 2600/2706 18007KT P6SM FEW050 BKN250
  FM261200 19010G15KT P6SM SCT020 SCT120 BKN250
  FM261400 23017G24KT P6SM VCTS SCT025CB BKN040 BKN120
  FM261900 26015G22KT P6SM SCT050 BKN250
  FM270000 26009KT P6SM FEW020


METAR Board
Radar Display
Forecast Discussion
For situational awareness. Not to be used for flight planning purposes.